Time;durP1;ratioP1;P1;durP2;ratioP2;P2;SDS_P1;SDS_P2;PMS_P1;PMS_P2;Temp;Humidity;BMP_temperature;BMP_pressure;BME280_temperature;BME280_humidity;BME280_pressure;Samples;Min_cycle;Max_cycle;Signal;HPM_P1;HPM_P2
2021/09/15 00:02:15;;;;;;;15.90;12.10;;;19.50;99.90;;;;;;5094943;28;20257;-64
2021/09/15 00:04:41;;;;;;;15.10;12.13;;;19.50;99.90;;;;;;5095091;28;20228;-63
2021/09/15 00:07:06;;;;;;;13.83;12.17;;;19.40;99.90;;;;;;5076805;28;20175;-63
2021/09/15 00:09:32;;;;;;;15.03;11.80;;;19.40;99.90;;;;;;5094978;28;20232;-63
2021/09/15 00:11:58;;;;;;;16.73;12.50;;;19.40;99.90;;;;;;5094780;28;20169;-63
2021/09/15 00:14:23;;;;;;;13.97;12.47;;;19.40;99.90;;;;;;5076292;28;20735;-63
2021/09/15 00:16:49;;;;;;;17.40;12.10;;;19.40;99.90;;;;;;5076496;28;20410;-64
2021/09/15 00:19:15;;;;;;;14.63;11.40;;;19.30;99.90;;;;;;5094740;28;20207;-63
2021/09/15 00:21:41;;;;;;;12.57;11.20;;;19.30;99.90;;;;;;5076441;28;20311;-64
2021/09/15 00:24:06;;;;;;;13.00;10.93;;;19.30;99.90;;;;;;5094717;28;20203;-63
2021/09/15 00:26:32;;;;;;;15.20;11.60;;;19.30;99.90;;;;;;5076434;28;20169;-63
2021/09/15 00:28:57;;;;;;;14.70;11.30;;;19.30;99.90;;;;;;5094449;28;20204;-63
2021/09/15 00:31:23;;;;;;;14.33;11.93;;;19.30;99.90;;;;;;5076382;28;20169;-63
2021/09/15 00:33:49;;;;;;;14.90;11.70;;;19.30;99.90;;;;;;5094302;28;20703;-63
2021/09/15 00:36:14;;;;;;;14.70;11.17;;;19.30;99.90;;;;;;5094410;28;20193;-63
2021/09/15 00:38:40;;;;;;;19.40;12.30;;;19.20;99.90;;;;;;5094261;28;20226;-64
2021/09/15 00:41:05;;;;;;;14.93;12.60;;;19.20;99.90;;;;;;5094373;28;20185;-63
2021/09/15 00:43:31;;;;;;;14.73;12.17;;;19.20;99.90;;;;;;5094260;28;20622;-64
2021/09/15 00:45:57;;;;;;;14.63;11.63;;;19.20;99.90;;;;;;5094237;28;20389;-64
2021/09/15 00:48:23;;;;;;;13.33;11.93;;;19.10;99.90;;;;;;5094070;28;20196;-63
2021/09/15 00:50:49;;;;;;;13.73;11.40;;;19.10;99.90;;;;;;5094077;28;20408;-64
2021/09/15 00:53:15;;;;;;;14.10;11.60;;;19.10;99.90;;;;;;5093945;28;20465;-63
2021/09/15 00:55:40;;;;;;;13.90;12.13;;;19.10;99.90;;;;;;5094121;28;20252;-63
2021/09/15 00:58:06;;;;;;;14.23;12.63;;;19.10;99.90;;;;;;5094156;28;20213;-63
2021/09/15 01:00:32;;;;;;;16.80;12.37;;;19.00;99.90;;;;;;5094379;28;20257;-63
2021/09/15 01:02:57;;;;;;;13.23;11.93;;;19.00;99.90;;;;;;5094000;28;20176;-63
2021/09/15 01:05:23;;;;;;;19.07;14.10;;;19.00;99.90;;;;;;5075964;28;20196;-64
2021/09/15 01:07:49;;;;;;;17.13;12.17;;;18.90;99.90;;;;;;5075811;28;20173;-63
2021/09/15 01:10:15;;;;;;;13.70;12.03;;;18.90;99.90;;;;;;5094329;28;20211;-63
2021/09/15 01:12:42;;;;;;;13.87;12.00;;;18.90;99.90;;;;;;5093896;28;20408;-63
2021/09/15 01:15:08;;;;;;;14.07;12.10;;;18.90;99.90;;;;;;5093779;28;20973;-63
2021/09/15 01:17:33;;;;;;;19.00;12.60;;;18.80;99.90;;;;;;5075206;28;20483;-63
2021/09/15 01:20:01;;;;;;;14.00;10.90;;;18.80;99.90;;;;;;5094070;28;20476;-63
2021/09/15 01:22:28;;;;;;;15.10;12.13;;;18.80;99.90;;;;;;5075683;28;20175;-63
2021/09/15 01:24:54;;;;;;;14.23;12.47;;;18.80;99.90;;;;;;5075662;28;20452;-63
2021/09/15 01:27:20;;;;;;;15.03;12.47;;;18.80;99.90;;;;;;5075614;28;20470;-63
2021/09/15 01:29:45;;;;;;;15.30;12.33;;;18.80;99.90;;;;;;5093931;28;20209;-63
2021/09/15 01:32:13;;;;;;;15.80;13.27;;;18.80;99.90;;;;;;5075544;28;20540;-63
2021/09/15 01:34:40;;;;;;;15.67;13.23;;;18.80;99.90;;;;;;5075492;28;20224;-63
2021/09/15 01:37:07;;;;;;;13.97;12.33;;;18.70;99.90;;;;;;5093552;28;20782;-63
2021/09/15 01:39:33;;;;;;;15.87;11.90;;;18.70;99.90;;;;;;5093893;28;20472;-63
2021/09/15 01:42:03;;;;;;;15.07;12.07;;;18.70;99.90;;;;;;5093544;28;20405;-63
2021/09/15 01:44:37;;;;;;;18.47;12.67;;;18.70;99.90;;;;;;5093758;28;20448;-63
2021/09/15 01:47:04;;;;;;;17.73;12.33;;;18.70;99.90;;;;;;5093545;28;20389;-63
2021/09/15 01:49:32;;;;;;;16.93;12.13;;;18.70;99.90;;;;;;5093710;28;20441;-63
2021/09/15 01:51:58;;;;;;;14.50;12.50;;;18.70;99.90;;;;;;5093496;28;20408;-63
2021/09/15 01:54:26;;;;;;;12.17;10.90;;;18.60;99.90;;;;;;5093627;28;20480;-63
2021/09/15 01:56:52;;;;;;;16.80;12.30;;;18.60;99.90;;;;;;5093446;28;20398;-63
2021/09/15 01:59:18;;;;;;;17.93;12.70;;;18.60;99.90;;;;;;5093556;28;20472;-63
2021/09/15 02:01:43;;;;;;;13.90;11.93;;;18.60;99.90;;;;;;5075318;28;20413;-64
2021/09/15 02:04:10;;;;;;;17.43;12.53;;;18.60;99.90;;;;;;5093561;28;20198;-63
2021/09/15 02:06:36;;;;;;;19.93;12.57;;;18.60;99.90;;;;;;5093442;28;20169;-63
2021/09/15 02:09:03;;;;;;;14.83;12.67;;;18.60;99.90;;;;;;5093373;28;20445;-63
2021/09/15 02:11:29;;;;;;;15.60;11.87;;;18.60;99.90;;;;;;5093296;28;20398;-64
2021/09/15 02:13:54;;;;;;;13.87;12.33;;;18.60;99.90;;;;;;5092969;28;21088;-63
2021/09/15 02:16:21;;;;;;;14.00;12.10;;;18.60;99.90;;;;;;5093374;28;20169;-64
2021/09/15 02:18:46;;;;;;;17.50;12.50;;;18.60;99.90;;;;;;5092999;28;20206;-63
2021/09/15 02:21:12;;;;;;;15.10;12.73;;;18.50;99.90;;;;;;5075244;28;20431;-63
2021/09/15 02:23:38;;;;;;;16.50;12.77;;;18.50;99.90;;;;;;5093183;28;20539;-63
2021/09/15 02:26:03;;;;;;;16.20;12.07;;;18.50;99.90;;;;;;5093172;28;20404;-63
2021/09/15 02:28:29;;;;;;;14.00;11.33;;;18.50;99.90;;;;;;5093568;28;20634;-63
2021/09/15 02:30:55;;;;;;;21.47;13.07;;;18.40;99.90;;;;;;5096775;28;20199;-63
2021/09/15 02:33:20;;;;;;;15.33;11.33;;;18.40;99.90;;;;;;5096674;28;20693;-63
2021/09/15 02:35:46;;;;;;;15.70;12.13;;;18.40;99.90;;;;;;5096670;28;20211;-63
2021/09/15 02:38:11;;;;;;;16.43;13.17;;;18.40;99.90;;;;;;5078371;28;20252;-64
2021/09/15 02:40:37;;;;;;;15.73;13.03;;;18.40;99.90;;;;;;5096593;28;20244;-63
2021/09/15 02:43:03;;;;;;;14.93;11.77;;;18.40;99.90;;;;;;5096474;28;20180;-63
2021/09/15 02:45:29;;;;;;;18.33;12.50;;;18.40;99.90;;;;;;5096334;28;20338;-63
2021/09/15 02:47:54;;;;;;;14.63;12.43;;;18.40;99.90;;;;;;5096396;28;20635;-63
2021/09/15 02:50:20;;;;;;;16.10;12.47;;;18.40;99.90;;;;;;5096885;28;20207;-63
2021/09/15 02:52:45;;;;;;;16.00;12.47;;;18.40;99.90;;;;;;5096388;28;20172;-63
2021/09/15 02:55:11;;;;;;;15.20;13.03;;;18.40;99.90;;;;;;5078224;28;20232;-63
2021/09/15 02:57:36;;;;;;;17.13;13.30;;;18.40;99.90;;;;;;5078206;28;20721;-63
2021/09/15 03:00:04;;;;;;;18.50;12.07;;;18.40;99.90;;;;;;5096453;28;20257;-64
2021/09/15 03:02:29;;;;;;;15.53;12.80;;;18.50;99.90;;;;;;5096144;28;20180;-63
2021/09/15 03:04:55;;;;;;;16.87;11.97;;;18.50;99.90;;;;;;5096439;28;20440;-63
2021/09/15 03:07:20;;;;;;;15.43;13.03;;;18.50;99.90;;;;;;5096118;28;20173;-64
2021/09/15 03:09:46;;;;;;;16.90;12.50;;;18.40;99.90;;;;;;5096294;28;20200;-63
2021/09/15 03:12:11;;;;;;;14.47;12.00;;;18.50;99.90;;;;;;5096235;28;20193;-63
2021/09/15 03:14:37;;;;;;;16.13;12.40;;;18.50;99.90;;;;;;5095579;28;20637;-63
2021/09/15 03:17:03;;;;;;;16.70;12.33;;;18.50;99.90;;;;;;5077768;28;20177;-63
2021/09/15 03:19:28;;;;;;;15.07;12.53;;;18.50;99.90;;;;;;5095998;28;20210;-63
2021/09/15 03:21:54;;;;;;;15.30;12.37;;;18.50;99.90;;;;;;5077696;28;20513;-63
2021/09/15 03:24:19;;;;;;;15.20;12.03;;;18.60;99.90;;;;;;5077642;28;20246;-63
2021/09/15 03:26:45;;;;;;;14.93;11.60;;;18.60;99.90;;;;;;5095686;28;20558;-64
2021/09/15 03:29:10;;;;;;;14.40;11.70;;;18.60;99.90;;;;;;5095543;28;20220;-63
2021/09/15 03:31:36;;;;;;;15.87;12.40;;;18.60;99.90;;;;;;5095540;28;20177;-63
2021/09/15 03:34:01;;;;;;;14.10;11.63;;;18.60;99.90;;;;;;5095526;28;20252;-63
2021/09/15 03:36:27;;;;;;;17.00;12.00;;;18.60;99.90;;;;;;5095528;28;20602;-63
2021/09/15 03:38:53;;;;;;;14.90;11.90;;;18.70;99.90;;;;;;5095497;28;20200;-63
2021/09/15 03:41:18;;;;;;;17.53;12.27;;;18.70;99.90;;;;;;5095136;28;20173;-63
2021/09/15 03:43:44;;;;;;;14.37;11.93;;;18.70;99.90;;;;;;5095290;28;20554;-63
2021/09/15 03:46:09;;;;;;;15.43;12.10;;;18.70;99.90;;;;;;5095350;28;20177;-64
2021/09/15 03:48:35;;;;;;;15.20;11.30;;;18.70;99.90;;;;;;5095185;28;20238;-63
2021/09/15 03:51:02;;;;;;;15.27;12.53;;;18.70;99.90;;;;;;5095227;28;20229;-63
2021/09/15 03:53:28;;;;;;;16.33;12.63;;;18.70;99.90;;;;;;5095089;28;20547;-63
2021/09/15 03:55:53;;;;;;;15.10;11.90;;;18.70;99.90;;;;;;5095180;28;20397;-64
2021/09/15 03:58:19;;;;;;;16.93;12.50;;;18.70;99.90;;;;;;5095081;28;20174;-63
2021/09/15 04:00:44;;;;;;;16.60;12.40;;;18.70;99.90;;;;;;5095027;28;20177;-64
2021/09/15 04:03:10;;;;;;;18.17;13.53;;;18.70;99.90;;;;;;5095044;28;20177;-63
2021/09/15 04:05:36;;;;;;;16.83;12.40;;;18.70;99.90;;;;;;5094933;28;20688;-63
2021/09/15 04:08:02;;;;;;;19.50;12.60;;;18.70;99.90;;;;;;5076743;28;20483;-64
2021/09/15 04:10:28;;;;;;;15.27;13.20;;;18.70;99.90;;;;;;5095273;28;20669;-63
2021/09/15 04:12:53;;;;;;;16.50;12.57;;;18.70;99.90;;;;;;5094703;28;20173;-64
2021/09/15 04:15:19;;;;;;;17.40;12.00;;;18.70;99.90;;;;;;5094734;28;20235;-63
2021/09/15 04:17:44;;;;;;;14.60;11.67;;;18.70;99.90;;;;;;5094708;28;20168;-63
2021/09/15 04:20:11;;;;;;;15.13;12.03;;;18.70;99.90;;;;;;5095076;28;20198;-63
2021/09/15 04:22:38;;;;;;;15.23;12.23;;;18.60;99.90;;;;;;5094643;28;20168;-63
2021/09/15 04:33:17;;;;;;;13.83;12.03;;;18.60;99.90;;;;;;5113438;28;20801;-63
2021/09/15 04:35:42;;;;;;;17.80;11.40;;;18.50;99.90;;;;;;5113671;28;20483;-63
2021/09/15 04:38:08;;;;;;;14.53;11.87;;;18.50;99.90;;;;;;5113671;28;20246;-64
2021/09/15 04:40:33;;;;;;;17.33;13.03;;;18.50;99.90;;;;;;5113998;28;20726;-63
2021/09/15 04:42:59;;;;;;;14.57;12.30;;;18.50;99.90;;;;;;5112964;28;20794;-63
2021/09/15 04:45:24;;;;;;;15.77;12.63;;;18.50;99.90;;;;;;5097898;28;20200;-63
2021/09/15 04:47:50;;;;;;;16.13;13.20;;;18.50;99.90;;;;;;5092383;28;20176;-63
2021/09/15 04:50:16;;;;;;;185.73;116.73;;;18.50;99.90;;;;;;5071585;28;20205;-63
2021/09/15 04:52:41;;;;;;;16.50;12.57;;;18.40;99.90;;;;;;5085660;28;20219;-63
2021/09/15 04:55:08;;;;;;;16.97;12.97;;;18.50;99.90;;;;;;5091975;28;20261;-63
2021/09/15 04:57:34;;;;;;;18.70;13.80;;;18.40;99.90;;;;;;5073425;28;20212;-63
2021/09/15 04:59:59;;;;;;;17.30;12.77;;;18.40;99.90;;;;;;5098621;28;20503;-63
2021/09/15 05:02:25;;;;;;;21.10;12.93;;;18.40;99.90;;;;;;5088887;28;20238;-64
2021/09/15 05:04:51;;;;;;;24.20;13.77;;;18.40;99.90;;;;;;5076523;28;20695;-63
2021/09/15 05:07:17;;;;;;;15.83;12.30;;;18.40;99.90;;;;;;5092868;28;20169;-63
2021/09/15 05:09:43;;;;;;;17.83;13.40;;;18.40;99.90;;;;;;5111446;28;20203;-63
2021/09/15 05:12:08;;;;;;;18.83;13.20;;;18.40;99.90;;;;;;5091890;28;20943;-63
2021/09/15 05:14:34;;;;;;;18.70;13.60;;;18.50;99.90;;;;;;5085424;28;20246;-64
2021/09/15 05:17:00;;;;;;;16.93;13.00;;;18.50;99.90;;;;;;5104737;28;20177;-64
2021/09/15 05:19:25;;;;;;;18.10;14.57;;;18.50;99.90;;;;;;5081927;28;20557;-63
2021/09/15 05:21:51;;;;;;;15.90;13.13;;;18.50;99.90;;;;;;5070130;28;20173;-64
2021/09/15 05:24:16;;;;;;;16.23;13.00;;;18.60;99.90;;;;;;5085690;28;20212;-64
2021/09/15 05:26:42;;;;;;;18.40;13.90;;;18.60;99.90;;;;;;5104947;28;20262;-63
2021/09/15 05:29:08;;;;;;;20.20;13.90;;;18.70;99.90;;;;;;5072531;28;20258;-63
2021/09/15 05:31:33;;;;;;;16.60;13.73;;;18.70;99.90;;;;;;5098610;28;20838;-64
2021/09/15 05:33:59;;;;;;;19.90;15.70;;;18.80;99.90;;;;;;5070220;28;20702;-63
2021/09/15 05:36:25;;;;;;;20.77;15.13;;;18.80;99.90;;;;;;5100904;28;20547;-63
2021/09/15 05:38:50;;;;;;;18.10;14.43;;;18.90;99.90;;;;;;5080979;28;20204;-63
2021/09/15 05:41:16;;;;;;;20.07;15.20;;;19.00;99.90;;;;;;5096869;28;20225;-63
2021/09/15 05:43:41;;;;;;;18.47;16.30;;;19.00;99.90;;;;;;5109020;28;20291;-63
2021/09/15 05:46:07;;;;;;;22.40;15.90;;;19.10;99.90;;;;;;5107276;28;20200;-63
2021/09/15 05:48:33;;;;;;;21.63;16.40;;;19.20;99.90;;;;;;5092773;28;20210;-64
2021/09/15 05:51:02;;;;;;;21.90;13.83;;;19.30;99.90;;;;;;5080397;28;20181;-63
2021/09/15 05:53:27;;;;;;;22.80;15.50;;;19.30;99.90;;;;;;5071971;28;20284;-63
2021/09/15 05:55:53;;;;;;;19.07;15.63;;;19.40;99.90;;;;;;5072862;28;20518;-63
2021/09/15 05:58:20;;;;;;;24.53;16.47;;;19.50;99.90;;;;;;5097741;28;20663;-63
2021/09/15 06:00:46;;;;;;;19.20;15.70;;;19.60;99.90;;;;;;5070655;28;20186;-63
2021/09/15 06:03:12;;;;;;;19.97;15.90;;;19.70;99.90;;;;;;5090402;28;20483;-63
2021/09/15 06:05:38;;;;;;;19.13;14.50;;;19.80;99.90;;;;;;5098599;28;20437;-63
2021/09/15 06:08:04;;;;;;;18.40;14.10;;;19.80;99.90;;;;;;5076916;28;20419;-63
2021/09/15 06:10:30;;;;;;;23.77;16.77;;;19.90;99.90;;;;;;5094460;28;20218;-63
2021/09/15 06:12:55;;;;;;;19.47;15.20;;;20.00;99.90;;;;;;5075544;28;20963;-63
2021/09/15 06:15:21;;;;;;;18.00;14.97;;;20.10;99.90;;;;;;5113185;28;20246;-63
2021/09/15 06:17:47;;;;;;;21.63;16.03;;;20.20;99.90;;;;;;5095465;28;20243;-63
2021/09/15 06:20:13;;;;;;;19.90;14.93;;;20.30;99.90;;;;;;5097571;28;20244;-63
2021/09/15 06:22:39;;;;;;;18.77;14.20;;;20.40;99.90;;;;;;5116014;28;20219;-63
2021/09/15 06:25:05;;;;;;;21.63;15.70;;;20.50;99.90;;;;;;5112624;28;20913;-63
2021/09/15 06:27:31;;;;;;;17.90;14.73;;;20.60;99.90;;;;;;5116575;28;20183;-63
2021/09/15 06:29:57;;;;;;;23.40;18.57;;;20.70;99.90;;;;;;5098701;28;20518;-63
2021/09/15 06:32:25;;;;;;;19.60;17.50;;;20.80;99.90;;;;;;5116774;28;20258;-63
2021/09/15 06:34:51;;;;;;;24.60;20.83;;;20.90;99.90;;;;;;5076106;28;20235;-63
2021/09/15 06:37:17;;;;;;;23.37;18.70;;;21.00;99.90;;;;;;5092375;28;20742;-63
2021/09/15 06:39:42;;;;;;;22.93;19.60;;;21.10;99.90;;;;;;5068118;28;20460;-63
2021/09/15 06:42:08;;;;;;;23.63;18.57;;;21.20;99.90;;;;;;5097011;28;20445;-63
2021/09/15 06:44:34;;;;;;;23.80;18.10;;;21.20;99.90;;;;;;5095012;28;20211;-63
2021/09/15 06:47:00;;;;;;;22.80;20.40;;;21.30;99.90;;;;;;5111215;28;20225;-64
2021/09/15 06:49:25;;;;;;;24.27;21.53;;;21.40;99.90;;;;;;5106420;28;20222;-63
2021/09/15 06:51:51;;;;;;;20.97;18.77;;;21.50;99.90;;;;;;5098169;28;20184;-63
2021/09/15 06:54:16;;;;;;;18.23;14.77;;;21.60;99.90;;;;;;5097079;28;20307;-63
2021/09/15 06:56:44;;;;;;;21.07;17.77;;;21.70;99.90;;;;;;5100448;28;20207;-63
2021/09/15 06:59:10;;;;;;;17.23;14.70;;;21.80;99.90;;;;;;5087048;28;20525;-63
2021/09/15 07:01:35;;;;;;;15.77;13.40;;;21.90;99.90;;;;;;5085964;28;20415;-63
2021/09/15 07:04:01;;;;;;;14.73;12.30;;;22.00;99.90;;;;;;5094300;28;20232;-63
2021/09/15 07:06:26;;;;;;;14.50;12.20;;;22.10;99.90;;;;;;5083480;28;20171;-63
2021/09/15 07:08:52;;;;;;;17.97;11.70;;;22.20;99.90;;;;;;5097105;28;20211;-63
2021/09/15 07:11:18;;;;;;;13.23;11.60;;;22.30;99.90;;;;;;5092651;28;20225;-64
2021/09/15 07:13:44;;;;;;;15.20;12.20;;;22.40;99.90;;;;;;5101232;28;20272;-64
2021/09/15 07:16:10;;;;;;;12.83;11.50;;;22.60;99.90;;;;;;5092944;28;20823;-63
2021/09/15 07:18:35;;;;;;;15.63;13.23;;;22.70;99.90;;;;;;5073347;28;20207;-63
2021/09/15 07:21:01;;;;;;;15.13;12.40;;;22.80;99.90;;;;;;5095969;28;20176;-63
2021/09/15 07:23:27;;;;;;;17.37;13.47;;;23.00;99.90;;;;;;5075193;28;20175;-63
2021/09/15 07:25:52;;;;;;;14.17;11.73;;;23.10;99.90;;;;;;5087191;28;20617;-64
2021/09/15 07:28:18;;;;;;;14.10;11.97;;;23.20;99.90;;;;;;5076637;28;20179;-63
2021/09/15 07:30:44;;;;;;;12.40;11.10;;;23.40;99.90;;;;;;5075924;28;20208;-63
2021/09/15 07:33:09;;;;;;;11.73;10.53;;;23.50;99.90;;;;;;5089515;28;20550;-63
2021/09/15 07:35:35;;;;;;;11.97;9.70;;;23.60;99.90;;;;;;5108886;28;20207;-63
2021/09/15 07:38:01;;;;;;;13.37;10.90;;;23.80;99.90;;;;;;5093709;28;20646;-64
2021/09/15 07:40:26;;;;;;;12.50;10.20;;;24.00;99.90;;;;;;5104655;28;20204;-63
2021/09/15 07:42:52;;;;;;;12.83;10.23;;;24.10;99.90;;;;;;5101549;28;20284;-63
2021/09/15 07:45:18;;;;;;;12.23;10.93;;;24.20;99.90;;;;;;5095084;28;20203;-63
2021/09/15 07:47:43;;;;;;;11.63;10.50;;;24.40;99.90;;;;;;5078142;28;20733;-63
2021/09/15 07:50:10;;;;;;;10.50;9.50;;;24.60;99.90;;;;;;5095427;28;20458;-63
2021/09/15 07:52:36;;;;;;;11.60;9.77;;;24.70;99.90;;;;;;5071498;28;20189;-64
2021/09/15 07:55:03;;;;;;;11.10;9.90;;;24.80;99.90;;;;;;5087670;28;20499;-64
2021/09/15 07:57:29;;;;;;;10.17;9.17;;;25.00;99.90;;;;;;5091354;28;20500;-64
2021/09/15 07:59:55;;;;;;;10.60;9.40;;;25.10;99.90;;;;;;5093076;28;20503;-64
2021/09/15 08:02:20;;;;;;;13.07;10.20;;;25.20;99.90;;;;;;5091358;28;20182;-63
2021/09/15 08:04:46;;;;;;;11.73;9.50;;;25.30;99.90;;;;;;5089750;28;20273;-64
2021/09/15 08:07:13;;;;;;;10.40;9.00;;;25.50;99.90;;;;;;5094237;28;20177;-64
2021/09/15 08:09:39;;;;;;;9.60;8.70;;;25.60;99.90;;;;;;5077426;28;20315;-65
2021/09/15 08:12:05;;;;;;;10.30;8.90;;;25.80;99.90;;;;;;5088537;28;20794;-65
2021/09/15 08:14:32;;;;;;;9.60;8.70;;;25.90;99.90;;;;;;5094406;28;20965;-64
2021/09/15 08:16:57;;;;;;;8.83;7.93;;;26.10;99.90;;;;;;5089588;28;20428;-64
2021/09/15 08:19:25;;;;;;;9.10;8.30;;;26.30;99.90;;;;;;5067717;28;20581;-64
2021/09/15 08:21:50;;;;;;;11.17;8.13;;;26.50;99.90;;;;;;5066189;28;20245;-65
2021/09/15 08:24:16;;;;;;;8.80;8.00;;;27.00;99.90;;;;;;5093837;28;20461;-64
2021/09/15 08:26:42;;;;;;;8.97;8.07;;;27.70;99.90;;;;;;5083832;28;20447;-65
2021/09/15 08:29:07;;;;;;;8.97;8.17;;;28.30;99.90;;;;;;5084275;28;20265;-64
2021/09/15 08:31:33;;;;;;;8.50;7.70;;;29.20;98.50;;;;;;5081843;28;20597;-64
2021/09/15 08:33:59;;;;;;;9.20;7.33;;;30.10;97.10;;;;;;5060282;28;20229;-64
2021/09/15 08:36:24;;;;;;;8.70;7.80;;;30.80;95.50;;;;;;5080988;28;20209;-64
2021/09/15 08:38:50;;;;;;;13.60;8.93;;;31.50;94.40;;;;;;5080586;28;20214;-64
2021/09/15 08:41:16;;;;;;;8.80;8.00;;;31.90;94.10;;;;;;5061658;28;20209;-65
2021/09/15 08:43:43;;;;;;;8.13;7.33;;;32.20;92.90;;;;;;5079315;28;20293;-64
2021/09/15 08:46:11;;;;;;;8.90;8.10;;;32.10;92.40;;;;;;5081697;28;20991;-64
2021/09/15 08:48:40;;;;;;;10.60;7.30;;;31.80;91.60;;;;;;5082726;28;20490;-64
2021/09/15 08:51:13;;;;;;;10.33;7.80;;;31.40;91.30;;;;;;5084061;28;20455;-65
2021/09/15 08:53:41;;;;;;;10.63;7.80;;;31.00;91.90;;;;;;5083995;28;20485;-64
2021/09/15 08:56:08;;;;;;;9.00;8.10;;;30.50;92.00;;;;;;5064787;28;20548;-64
2021/09/15 08:58:33;;;;;;;10.87;8.70;;;30.10;92.60;;;;;;5081976;28;20559;-64
2021/09/15 09:01:23;;;;;;;8.93;8.23;;;29.90;93.10;;;;;;5087959;28;20202;-64
2021/09/15 09:03:56;;;;;;;9.10;8.20;;;29.70;93.00;;;;;;5083513;28;20199;-64
2021/09/15 09:06:24;;;;;;;10.00;8.40;;;29.60;93.40;;;;;;5100532;28;20463;-64
2021/09/15 09:08:55;;;;;;;8.30;7.60;;;29.60;93.20;;;;;;5079220;28;20464;-64
2021/09/15 09:11:26;;;;;;;9.53;7.63;;;29.50;92.90;;;;;;5082894;28;20463;-64
2021/09/15 09:13:57;;;;;;;10.70;8.20;;;29.50;92.50;;;;;;5090622;28;20492;-64
2021/09/15 09:16:36;;;;;;;8.30;7.60;;;29.40;92.80;;;;;;5089753;28;21096;-64
2021/09/15 09:19:04;;;;;;;8.53;7.30;;;29.40;92.60;;;;;;5087495;28;20977;-64
2021/09/15 09:21:33;;;;;;;8.27;7.57;;;29.40;92.90;;;;;;5098352;28;20505;-64
2021/09/15 09:24:05;;;;;;;8.40;7.60;;;29.50;92.20;;;;;;5091334;28;20806;-64
2021/09/15 09:26:51;;;;;;;10.20;7.80;;;29.60;92.20;;;;;;5086670;28;20835;-64
2021/09/15 09:29:29;;;;;;;8.10;7.40;;;29.60;92.20;;;;;;5083492;28;20467;-64
2021/09/15 09:32:05;;;;;;;8.30;7.47;;;29.50;92.10;;;;;;5091443;28;20925;-64
2021/09/15 09:34:42;;;;;;;8.50;7.40;;;29.50;92.30;;;;;;5083893;28;20516;-65
2021/09/15 09:37:20;;;;;;;9.63;8.40;;;29.40;92.50;;;;;;5100475;28;20477;-65
2021/09/15 09:39:52;;;;;;;8.83;8.03;;;29.40;92.00;;;;;;5091725;28;20475;-65
2021/09/15 09:42:24;;;;;;;8.83;7.50;;;29.40;91.90;;;;;;5096050;28;20421;-65
2021/09/15 09:45:05;;;;;;;8.57;7.73;;;29.30;91.90;;;;;;5105370;28;20501;-65
2021/09/15 09:47:33;;;;;;;8.50;7.50;;;29.30;91.80;;;;;;5080659;28;20439;-65
2021/09/15 09:50:12;;;;;;;8.63;7.73;;;29.30;92.10;;;;;;5090363;28;20814;-65
2021/09/15 09:53:00;;;;;;;7.37;6.67;;;29.30;92.20;;;;;;5078666;28;20414;-65
2021/09/15 09:55:32;;;;;;;8.00;7.20;;;29.30;91.90;;;;;;5074438;28;20527;-65
2021/09/15 09:57:58;;;;;;;7.40;6.80;;;29.30;91.80;;;;;;5093467;28;20657;-66
2021/09/15 10:00:25;;;;;;;6.90;6.30;;;29.30;91.50;;;;;;5084712;28;20461;-65
2021/09/15 10:02:52;;;;;;;7.70;7.00;;;29.30;91.70;;;;;;5103417;28;20464;-65
2021/09/15 10:05:19;;;;;;;5.83;5.33;;;29.40;91.70;;;;;;5088306;28;20470;-64
2021/09/15 10:07:46;;;;;;;7.20;6.60;;;29.40;91.00;;;;;;5088933;28;20432;-63
2021/09/15 10:10:17;;;;;;;7.00;6.10;;;29.30;91.10;;;;;;5090003;28;20557;-63
2021/09/15 10:12:45;;;;;;;6.20;5.70;;;29.30;91.20;;;;;;5088256;28;20952;-63
2021/09/15 10:15:11;;;;;;;7.17;6.47;;;29.30;91.20;;;;;;5098519;28;20489;-63
2021/09/15 10:17:40;;;;;;;7.43;6.67;;;29.30;91.20;;;;;;5102960;28;20445;-64
2021/09/15 10:20:08;;;;;;;6.47;5.70;;;29.30;91.20;;;;;;5092257;28;20967;-65
2021/09/15 10:22:37;;;;;;;7.27;6.57;;;29.40;91.20;;;;;;5100635;28;20443;-65
2021/09/15 10:25:08;;;;;;;6.83;6.20;;;29.50;90.90;;;;;;5099280;28;20529;-64
2021/09/15 10:28:00;;;;;;;6.70;6.10;;;29.50;90.70;;;;;;5090453;28;20463;-65
2021/09/15 10:30:44;;;;;;;6.80;6.17;;;29.60;90.90;;;;;;5089791;28;20466;-65
2021/09/15 10:33:35;;;;;;;6.23;5.67;;;29.70;90.60;;;;;;5082670;28;20803;-65
2021/09/15 10:36:01;;;;;;;7.10;6.40;;;29.70;90.60;;;;;;5095227;28;20771;-65
2021/09/15 10:38:58;;;;;;;6.17;5.67;;;29.80;90.30;;;;;;5089776;28;20426;-65
2021/09/15 10:41:33;;;;;;;6.90;6.17;;;29.80;90.10;;;;;;5063005;28;20444;-64
2021/09/15 10:44:15;;;;;;;5.40;5.00;;;29.80;90.00;;;;;;5094091;28;20447;-64
2021/09/15 10:46:44;;;;;;;6.37;5.77;;;29.80;89.60;;;;;;5083911;28;20535;-65
2021/09/15 10:49:23;;;;;;;6.03;5.47;;;29.80;89.90;;;;;;5079467;28;20481;-65
2021/09/15 10:52:06;;;;;;;7.00;6.40;;;29.90;90.00;;;;;;5088063;28;20436;-65
2021/09/15 10:54:55;;;;;;;7.07;6.37;;;29.90;89.60;;;;;;5073612;28;20479;-64
2021/09/15 10:57:35;;;;;;;8.20;6.13;;;29.90;90.10;;;;;;5079416;28;20434;-64
2021/09/15 11:00:21;;;;;;;7.20;6.50;;;29.90;90.00;;;;;;5082097;28;20820;-64
2021/09/15 11:02:49;;;;;;;7.00;6.30;;;30.00;89.70;;;;;;5093239;28;20888;-65
2021/09/15 11:05:27;;;;;;;6.20;5.50;;;30.00;88.90;;;;;;5084042;28;20463;-64
2021/09/15 11:07:55;;;;;;;7.23;5.80;;;30.00;88.50;;;;;;5088711;28;20481;-65
2021/09/15 11:10:33;;;;;;;6.37;5.87;;;30.00;87.80;;;;;;5072256;28;20545;-65
2021/09/15 11:13:13;;;;;;;6.10;5.60;;;30.10;88.40;;;;;;5094052;28;20468;-65
2021/09/15 11:15:41;;;;;;;7.90;5.90;;;30.10;88.30;;;;;;5084117;28;20475;-65
2021/09/15 11:18:07;;;;;;;6.27;5.77;;;30.10;88.30;;;;;;5085218;28;20473;-65
2021/09/15 11:20:36;;;;;;;6.57;5.93;;;30.10;88.80;;;;;;5070059;28;20447;-65
2021/09/15 11:23:07;;;;;;;10.53;6.77;;;30.10;87.50;;;;;;5092519;28;20464;-65
2021/09/15 11:25:33;;;;;;;7.03;5.80;;;30.10;87.40;;;;;;5067148;28;20480;-65
2021/09/15 11:28:07;;;;;;;6.20;5.70;;;30.10;87.80;;;;;;5090937;28;20793;-64
2021/09/15 11:30:38;;;;;;;8.80;6.00;;;30.10;87.30;;;;;;5094437;28;20448;-63
2021/09/15 11:33:04;;;;;;;5.97;5.37;;;30.10;87.60;;;;;;5084140;28;20424;-64
2021/09/15 11:35:33;;;;;;;6.73;6.13;;;30.10;86.40;;;;;;5085720;28;20565;-63
2021/09/15 11:37:59;;;;;;;6.80;6.20;;;30.20;87.30;;;;;;5085739;28;20754;-64
2021/09/15 11:40:30;;;;;;;7.50;5.90;;;30.20;87.20;;;;;;5084933;28;20902;-63
2021/09/15 11:42:56;;;;;;;6.93;6.33;;;30.20;86.30;;;;;;5088611;28;20583;-64
2021/09/15 11:45:26;;;;;;;7.03;6.37;;;30.30;87.10;;;;;;5084812;28;20459;-63
2021/09/15 11:47:54;;;;;;;9.13;5.80;;;30.30;86.50;;;;;;5087384;28;20480;-63
2021/09/15 11:50:31;;;;;;;7.40;6.50;;;30.40;86.10;;;;;;5092801;28;20497;-64
2021/09/15 11:53:17;;;;;;;7.23;6.53;;;30.40;86.10;;;;;;5082005;28;20635;-63
2021/09/15 11:55:51;;;;;;;7.77;5.80;;;30.40;85.40;;;;;;5066053;28;21026;-63
2021/09/15 11:58:17;;;;;;;6.70;6.10;;;30.50;84.60;;;;;;5066141;28;20429;-63
2021/09/15 12:00:43;;;;;;;6.67;6.17;;;30.50;85.30;;;;;;5066916;28;20431;-63
2021/09/15 12:03:13;;;;;;;6.30;5.70;;;30.50;85.70;;;;;;5081181;28;20429;-63
2021/09/15 12:05:43;;;;;;;10.03;6.70;;;30.50;85.00;;;;;;5064221;28;20183;-64
2021/09/15 12:08:09;;;;;;;6.13;5.30;;;30.50;84.50;;;;;;5065205;28;20562;-63
2021/09/15 12:10:36;;;;;;;6.40;5.90;;;30.50;85.40;;;;;;5070670;28;20489;-64
2021/09/15 12:13:02;;;;;;;8.93;5.83;;;30.50;85.50;;;;;;5084936;28;20526;-63
2021/09/15 12:15:27;;;;;;;7.13;6.43;;;30.50;85.00;;;;;;5091865;28;20946;-63
2021/09/15 12:17:57;;;;;;;6.80;6.10;;;30.50;84.70;;;;;;5098048;28;20644;-63
2021/09/15 12:20:42;;;;;;;11.77;6.37;;;30.50;84.40;;;;;;5096956;28;20205;-63
2021/09/15 12:23:09;;;;;;;8.37;6.57;;;30.50;84.90;;;;;;5085522;28;21098;-63
2021/09/15 12:25:35;;;;;;;6.60;6.07;;;30.60;84.30;;;;;;5094191;28;20445;-64
2021/09/15 12:28:01;;;;;;;7.00;6.30;;;30.60;84.00;;;;;;5102302;28;20476;-64
2021/09/15 12:30:27;;;;;;;7.90;6.30;;;30.50;83.80;;;;;;5098282;28;20458;-64
2021/09/15 12:33:00;;;;;;;6.37;5.77;;;30.50;84.20;;;;;;5095231;28;20545;-63
2021/09/15 12:35:34;;;;;;;6.43;5.83;;;30.50;83.70;;;;;;5080300;28;20686;-65
2021/09/15 12:38:06;;;;;;;7.27;6.57;;;30.50;83.40;;;;;;5090393;28;20471;-64
2021/09/15 12:40:34;;;;;;;6.77;6.17;;;30.50;83.50;;;;;;5090968;28;20460;-63
2021/09/15 12:43:09;;;;;;;6.87;6.27;;;30.50;83.80;;;;;;5096172;28;20438;-64
2021/09/15 12:45:38;;;;;;;6.50;5.70;;;30.50;83.80;;;;;;5083694;28;20515;-63